Racecast

Hadassah Shiver

Thompson Valley (CO) · 12 · Compare head to head

Athlete rating 126.2 2025 XC season
Best race 134.7 XC
Races 53
Seasons 6 2021 — 2026

RankedNation #4991·CO #250·CO D4A #146·NORTHERN #5·Team #9 ?

Rating scale ?
Speed rating — all races

Cross Country

XC speed rating

2025 XC 122.7

Thompson Valley (CO) · Grade 12

Date Meet Event Result Place Rating Difficulty PR/SR Flags
2025-11-22 Toka Sticks Golf Course 5000m 20:34.7 57th · 3rd on team 120.4 +0.009 CSR
2025-11-01 Norris Penrose Event Center 5000m 20:28.5 51st · 1st on team 126.4 +0.067 CSR RSR
2025-10-10 Spring Canyon Park 5000m 19:57.2 13th · 2nd on team 126.1 +0.037 ★CR SR CSR RSR
2025-08-30 Fort Collins High School 5000m 20:19 32nd · 1st on team 123.3 +0.023 ★CR SR CSR RSR
2025-08-23 Mountain Vista High School 3218m 13:33 4th · 2nd on team 117.5 +0.067 SR CSR RSR

2024 XC 123.8

Thompson Valley (CO) · Grade 11

Date Meet Event Result Place Rating Difficulty PR/SR Flags
2024-11-23 Toka Sticks Golf Course 5000m 19:41.7 25th · 1st on team 126.8 +0.009 ★PR ★CR SR CSR RSR
2024-11-02 Norris Penrose Event Center 5000m 20:43.9 68th · 2nd on team 126.1 +0.067 CSR RSR
2024-09-20 Lincoln Park Golf Course 5000m 20:22.2 32nd · 4th on team 119.8 -0.012 ★CR SR CSR
2024-08-31 Fort Collins High School 5000m 20:33 35th · 3rd on team 124.2 +0.023 CR SR CSR RSR
2024-08-24 Mountain Vista High School 3218m 13:18 33rd · 2nd on team 122.4 +0.067 ★CR SR CSR RSR

2023 XC 125.5

Thompson Valley (CO) · Grade 10

Date Meet Event Result Place Rating Difficulty PR/SR Flags
2023-11-18 Coyote Run Golf Course at Leisure World 5000m 20:06.8 30th · 1st on team 126.8 +0.029 PR ★CR SR CSR
2023-10-28 Norris Penrose Event Center 5000m 20:08 39th · 1st on team 129.4 +0.067 PR ★CR SR CSR RSR
2023-10-19 Monfort Park 5000m 20:31.8 6th · 2nd on team 124.2 +0.019 ★CR SR CSR
2023-09-03 Little America Golf Course 5000m 20:50.4 28th · 1st on team 126.5 +0.064 ★CR SR CSR RSR
2023-08-19 Berthoud High School 3218m 12:50.8 8th · 2nd on team 120.4 +0.007 ★PR ★CR SR CSR RSR

2022 XC 121.7

Thompson Valley (CO) · Grade 9

Date Meet Event Result Place Rating Difficulty PR/SR Flags
2022-11-19 Coyote Run Golf Course at Leisure World 5000m 20:41.9 31st · 2nd on team 124.0 +0.029 CR CSR
2022-10-29 Norris Penrose Event Center 5000m 21:07.9 68th · 2nd on team 125.2 +0.067 CR CSR RSR
2022-10-20 Lyons Middle/High School 5000m 21:43.1 11th · 1st on team 119.0 +0.046
2022-10-12 Riverside Park 5000m 20:15.9 15th · 2nd on team 123.9 +0.005 PR ★CR SR CSR RSR
2022-09-30 North Lake Park 5000m 21:02 19th · 2nd on team 123.2 +0.041 PR ★CR SR CSR RSR
2022-09-17 Lyons Middle/High School 5000m 21:42.9 103rd · 1st on team 120.4 +0.046 ★CR CSR
2022-09-03 Little America Golf Course 5000m 21:47.5 44th · 1st on team 121.1 +0.064 CR CSR RSR
2022-08-27 Fort Collins High School 5000m 21:17 21st · 1st on team 120.5 +0.023 PR CR SR CSR RSR
2022-08-20 Spring Canyon Park 5000m 21:48 25th · 1st on team 118.1 +0.037 PR CR SR CSR RSR

2021 XC 113.9

Walt Clark (CO) · Grade 8

Date Meet Event Result Place Rating Difficulty PR/SR Flags
2021-10-07 Mehaffey Park 2816m 16:01.9 6th · 4th on team 93.2 ★PR ★CR SR CSR
2021-09-09 Monfort Park 3218m 13:34 8th · 4th on team 134.7 +0.065 PR ★CR ★R SR CSR RSR

Track & Field

TF speed rating

2026 TF 117.3

Thompson Valley (CO) · Grade 12

Date Meet Event Result Place Rating Difficulty PR/SR Flags
2026-04-29 Longs Peak and Northern Conference Championships 800m 2:33.83 20th · 3rd on team 121.3 -0.014 SR RSR
2026-04-29 Longs Peak and Northern Conference Championships 1600m 5:43.68 9th · 1st on team 121.0 -0.014 SR
2026-04-21 NOCO Berthoud Qualifier 1600m 6:11.89 4th · 1st on team 112.8 -0.006
2026-04-18 Randall Hess Roughrider Invitational 800m 2:40.38 46th · 4th on team 116.4 -0.014
2026-04-18 Randall Hess Roughrider Invitational 1600m 5:49.42 48th · 1st on team 119.1 -0.014 SR RSR
2026-04-04 Altitude Running Invitational 800m 2:41.26 32nd · 3rd on team 116.1 -0.012
2026-03-28 Niwot Invitational 800m 2:39.52 57th · 2nd on team 117.1 -0.014 SR RSR
2026-03-27 Roosevelt Power Meet Invitational 1600m 5:58.09 40th · 1st on team 116.2 -0.014 SR
2026-03-21 Broomfield Shootout 800m 2:40.9 35th · 2nd on team 116.3 -0.012 SR RSR

2025 TF 123.7

Thompson Valley (CO) · Grade 11

Date Meet Event Result Place Rating Difficulty PR/SR Flags
2025-05-10 Teddy's Last Chance Qualifier 800m 2:31.44 50th · 2nd on team 123.4 -0.014
2025-04-30 Longs Peak and Rocky Mountain League Meet 1600m 5:35.22 4th · 2nd on team 123.9 -0.014 ★PR SR
2025-04-30 Longs Peak and Rocky Mountain League Meet 800m 2:27.77 7th · 2nd on team 126.5 -0.014 ★PR SR RSR
2025-04-23 NOCO MVHS - TVHS Qualifier 1600m 5:36.53 3rd · 1st on team 124.3 -0.006 PR SR
2025-04-23 NOCO MVHS - TVHS Qualifier 800m 2:32.42 6th · 1st on team 123.3 -0.006
2025-04-19 Randall Hess Roughrider Invitational 1600m 5:37.97 26th · 1st on team 123.0 -0.014 PR SR
2025-04-05 Altitude Running Invite 800m 2:30.08 19th · 3rd on team 124.8 -0.012 PR SR RSR
2025-03-29 Niwot Invitational 1600m 5:46.09 41st · 1st on team 120.1 -0.014 SR RSR

2024 TF 120.4

Thompson Valley (CO) · Grade 10

Date Meet Event Result Place Rating Difficulty PR/SR Flags
2024-05-11 Teddy's Last Chance Qualifier 1600m 5:39.67 8th · 1st on team 122.2 -0.014 PR SR
2024-05-10 HOKA St. Vrain Invitational 800m 2:30.97 60th · 3rd on team 123.6 -0.015 PR SR RSR
2024-04-29 Randall Hess Roughrider Invitational 1600m 5:47.99 22nd · 2nd on team 119.4 -0.014 SR RSR
2024-04-04 Altitude Running Invitational 1600m 5:50.61 17th · 1st on team 119.4 -0.009 SR RSR
2024-03-30 University Bulldog Invitational 1600m 5:54.46 6th · 1st on team 117.3 -0.011 SR RSR
2024-03-22 Race results → 800m 2:36.96 29th · 3rd on team SR

2023 TF 118.9

Thompson Valley (CO) · Grade 9

Date Meet Event Result Place Rating Difficulty PR/SR Flags
2023-05-05 Longs Peak/NCAC/Mile High League Meets 800m 2:33.13 11th · 2nd on team 122.4 -0.015 PR SR RSR
2023-04-28 Longmont Invitational 1600m 5:46.84 15th · 2nd on team 120.8 -0.015 PR SR RSR
2023-04-07 Birds of Prey Invitational 1600m 5:53.32 5th · 1st on team 119.5 +0.001 PR SR RSR
2023-03-10 Max Marr Invitational 1600m 6:11.79 15th · 2nd on team 113.1 -0.006 PR SR RSR